createdAt,value
2022-09-12T00:01:28.663Z,12.03
2022-09-12T00:04:00.235Z,12.70
2022-09-12T00:06:31.083Z,13.13
2022-09-12T00:09:03.022Z,12.67
2022-09-12T00:11:31.249Z,12.93
2022-09-12T00:14:01.980Z,13.43
2022-09-12T00:16:33.150Z,13.33
2022-09-12T00:19:02.273Z,13.50
2022-09-12T00:21:31.150Z,13.40
2022-09-12T00:24:00.718Z,13.63
2022-09-12T00:26:28.839Z,14.47
2022-09-12T00:28:57.009Z,13.23
2022-09-12T00:31:27.674Z,13.23
2022-09-12T00:34:00.663Z,14.03
2022-09-12T00:36:32.359Z,11.77
2022-09-12T00:39:03.030Z,11.97
2022-09-12T00:41:34.287Z,13.97
2022-09-12T00:44:05.669Z,11.90
2022-09-12T00:46:39.855Z,13.33
2022-09-12T00:49:15.547Z,13.17
2022-09-12T00:51:56.642Z,13.37
2022-09-12T00:54:31.865Z,12.50
2022-09-12T00:57:05.870Z,13.97
2022-09-12T00:59:39.749Z,13.17
2022-09-12T01:02:08.745Z,13.33
2022-09-12T01:04:39.945Z,13.57
2022-09-12T01:07:09.859Z,14.13
2022-09-12T01:09:41.058Z,14.43
2022-09-12T01:12:09.944Z,15.23
2022-09-12T01:14:38.756Z,14.87
2022-09-12T01:17:06.968Z,15.83
2022-09-12T01:20:18.307Z,15.40
2022-09-12T01:23:11.067Z,15.03
2022-09-12T01:26:02.039Z,16.17
2022-09-12T01:29:00.780Z,16.20
2022-09-12T01:31:37.833Z,16.00
2022-09-12T01:34:18.424Z,16.90
2022-09-12T01:36:57.550Z,18.50
2022-09-12T01:39:34.143Z,18.57
2022-09-12T01:42:12.258Z,18.37
2022-09-12T01:44:49.537Z,17.93
2022-09-12T01:47:25.549Z,20.23
2022-09-12T01:50:02.082Z,18.33
2022-09-12T01:52:38.173Z,19.33
2022-09-12T01:55:12.894Z,20.43
2022-09-12T01:57:45.989Z,19.60
2022-09-12T02:00:15.422Z,20.47
2022-09-12T02:02:52.904Z,20.30
2022-09-12T02:05:27.714Z,20.70
2022-09-12T02:08:02.834Z,20.73
2022-09-12T02:10:35.517Z,21.73
2022-09-12T02:13:10.666Z,20.20
2022-09-12T02:15:43.143Z,22.17
2022-09-12T02:18:16.018Z,22.20
2022-09-12T02:20:49.013Z,24.93
2022-09-12T02:23:23.729Z,24.87
2022-09-12T02:25:56.233Z,25.47
2022-09-12T02:28:29.305Z,25.57
2022-09-12T02:31:07.165Z,29.03
2022-09-12T02:33:49.208Z,26.20
2022-09-12T02:36:30.867Z,26.97
2022-09-12T02:39:00.182Z,25.37
2022-09-12T02:41:28.451Z,27.70
2022-09-12T02:43:56.956Z,29.50
2022-09-12T02:46:30.779Z,27.70
2022-09-12T02:49:00.360Z,30.87
2022-09-12T02:51:28.913Z,29.83
2022-09-12T02:53:57.243Z,29.07
2022-09-12T02:56:28.831Z,30.17
2022-09-12T02:59:00.649Z,31.27
2022-09-12T03:01:51.195Z,36.23
2022-09-12T03:04:48.899Z,32.97
2022-09-12T03:07:31.526Z,32.60
2022-09-12T03:10:10.394Z,36.23
2022-09-12T03:12:49.622Z,37.40
2022-09-12T03:15:39.067Z,34.80
2022-09-12T03:18:21.434Z,33.47
2022-09-12T03:21:01.036Z,37.63
2022-09-12T03:23:38.040Z,37.27
2022-09-12T03:26:11.890Z,34.10
2022-09-12T03:28:41.672Z,31.13
2022-09-12T03:31:20.937Z,36.37
2022-09-12T03:33:49.173Z,33.83
2022-09-12T03:36:24.091Z,39.60
2022-09-12T03:38:52.485Z,44.50
2022-09-12T03:41:21.127Z,51.37
2022-09-12T03:43:49.672Z,51.17
2022-09-12T03:46:17.707Z,54.73
2022-09-12T03:48:45.917Z,51.10
2022-09-12T03:51:14.048Z,54.03
2022-09-12T03:53:43.535Z,58.60
2022-09-12T03:56:13.303Z,74.53
2022-09-12T03:58:42.568Z,81.40
2022-09-12T04:01:12.877Z,90.93
2022-09-12T04:03:41.626Z,82.47
2022-09-12T04:06:11.658Z,69.10
2022-09-12T04:08:40.282Z,59.67
2022-09-12T04:11:12.435Z,62.73
2022-09-12T04:13:42.480Z,60.00
2022-09-12T04:16:12.051Z,59.57
2022-09-12T04:18:40.371Z,52.37
2022-09-12T04:21:11.422Z,55.57
2022-09-12T04:23:39.496Z,55.90
2022-09-12T04:26:10.011Z,53.00
2022-09-12T04:28:39.487Z,55.50
2022-09-12T04:31:09.970Z,54.77
2022-09-12T04:33:38.273Z,61.00
2022-09-12T04:36:08.980Z,55.57
2022-09-12T04:38:38.364Z,56.17
2022-09-12T04:41:14.226Z,57.13
2022-09-12T04:43:42.574Z,55.83
2022-09-12T04:46:12.604Z,59.20
2022-09-12T04:48:40.876Z,58.57
2022-09-12T04:51:11.141Z,61.33
2022-09-12T04:53:39.651Z,55.77
2022-09-12T04:56:10.936Z,56.57
2022-09-12T04:58:40.385Z,57.87
2022-09-12T05:01:10.727Z,57.60
2022-09-12T05:03:39.594Z,52.60
2022-09-12T05:06:09.724Z,61.10
2022-09-12T05:08:38.278Z,57.93
2022-09-12T05:11:08.147Z,53.20
2022-09-12T05:13:36.833Z,53.37
2022-09-12T05:16:08.787Z,55.97
2022-09-12T05:18:38.276Z,58.40
2022-09-12T05:21:09.291Z,66.87
2022-09-12T05:23:37.855Z,69.97
2022-09-12T05:26:08.430Z,71.73
2022-09-12T05:28:40.236Z,71.50
2022-09-12T05:31:12.779Z,73.87
2022-09-12T05:33:44.942Z,80.07
2022-09-12T05:36:18.204Z,79.20
2022-09-12T05:38:47.306Z,90.43
2022-09-12T05:41:20.846Z,82.90
2022-09-12T05:43:54.580Z,86.87
2022-09-12T05:46:26.824Z,88.20
2022-09-12T05:48:56.876Z,90.57
2022-09-12T05:51:28.143Z,82.23
2022-09-12T05:53:59.216Z,80.43
2022-09-12T05:56:29.726Z,77.53
2022-09-12T05:59:00.015Z,84.23
2022-09-12T06:01:31.310Z,86.77
2022-09-12T06:04:01.813Z,78.37
2022-09-12T06:06:32.246Z,72.60
2022-09-12T06:09:02.945Z,60.60
2022-09-12T06:11:33.229Z,59.73
2022-09-12T06:14:02.676Z,56.43
2022-09-12T06:16:34.969Z,62.03
2022-09-12T06:19:06.620Z,60.40
2022-09-12T06:21:35.518Z,60.07
2022-09-12T06:24:03.947Z,60.03
2022-09-12T06:26:32.299Z,60.80
2022-09-12T06:29:02.199Z,53.07
2022-09-12T06:31:34.939Z,55.40
2022-09-12T06:34:06.216Z,61.47
2022-09-12T06:36:38.244Z,51.70
2022-09-12T06:39:09.745Z,51.33
2022-09-12T06:41:42.990Z,50.90
2022-09-12T06:44:15.530Z,48.20
2022-09-12T06:46:45.230Z,49.43
2022-09-12T06:49:14.160Z,46.93
2022-09-12T06:51:43.065Z,46.63
2022-09-12T06:54:18.258Z,43.77
2022-09-12T06:56:46.447Z,43.83
2022-09-12T06:59:14.716Z,47.43
2022-09-12T07:01:44.297Z,48.03
2022-09-12T07:04:12.864Z,47.23
2022-09-12T07:06:44.557Z,46.63
2022-09-12T07:09:16.273Z,49.60
2022-09-12T07:11:46.252Z,51.50
2022-09-12T07:14:15.731Z,50.03
2022-09-12T07:16:45.425Z,52.27
2022-09-12T07:19:13.580Z,51.97
2022-09-12T07:21:42.152Z,56.30
2022-09-12T07:24:11.488Z,54.63
2022-09-12T07:26:42.206Z,51.07
2022-09-12T07:32:07.578Z,57.83
2022-09-12T07:34:36.441Z,56.13
2022-09-12T07:37:04.680Z,54.03
2022-09-12T07:39:32.818Z,48.87
2022-09-12T07:42:01.441Z,50.27
2022-09-12T07:44:29.562Z,51.90
2022-09-12T07:46:57.677Z,52.50
2022-09-12T07:49:27.762Z,45.73
2022-09-12T07:51:55.833Z,51.07
2022-09-12T07:54:24.260Z,54.03
2022-09-12T07:56:52.483Z,48.73
2022-09-12T07:59:35.659Z,46.47
2022-09-12T08:02:17.174Z,44.40
2022-09-12T08:04:48.479Z,43.60
2022-09-12T08:07:18.247Z,48.10
2022-09-12T08:09:46.426Z,38.80
2022-09-12T08:12:15.110Z,40.60
2022-09-12T08:14:43.199Z,36.67
2022-09-12T08:17:11.298Z,32.90
2022-09-12T08:19:39.427Z,34.97
2022-09-12T08:22:09.787Z,33.10
2022-09-12T08:24:39.135Z,33.63
2022-09-12T08:27:07.558Z,33.97
2022-09-12T08:29:35.639Z,32.70
2022-09-12T08:32:04.666Z,33.80
2022-09-12T08:34:32.762Z,29.73
2022-09-12T08:37:00.939Z,35.30
2022-09-12T08:39:32.656Z,30.77
2022-09-12T08:42:04.033Z,29.73
2022-09-12T08:45:17.502Z,27.23
2022-09-12T08:47:48.219Z,28.33
2022-09-12T08:50:21.131Z,27.83
2022-09-12T08:52:58.478Z,28.87
2022-09-12T08:55:35.039Z,26.27
2022-09-12T08:58:12.063Z,25.87
2022-09-12T09:00:55.076Z,24.40
2022-09-12T09:04:20.577Z,23.73
2022-09-12T09:07:34.530Z,24.10
2022-09-12T09:10:19.474Z,24.23
2022-09-12T09:13:00.796Z,19.60
2022-09-12T09:15:51.410Z,20.20
2022-09-12T09:18:24.600Z,19.57
2022-09-12T09:20:57.600Z,19.23
2022-09-12T09:23:30.814Z,17.73
2022-09-12T09:26:07.172Z,19.60
2022-09-12T09:28:43.477Z,20.53
2022-09-12T09:31:17.140Z,19.97
2022-09-12T09:33:49.275Z,19.17
2022-09-12T09:36:23.932Z,18.60
2022-09-12T09:39:00.955Z,19.90
2022-09-12T09:41:48.301Z,21.40
2022-09-12T09:44:18.179Z,20.43
2022-09-12T09:46:46.329Z,19.77
2022-09-12T09:49:15.500Z,19.77
2022-09-12T09:51:44.360Z,22.33
2022-09-12T09:54:21.320Z,23.33
2022-09-12T09:56:49.475Z,21.17
2022-09-12T09:59:21.780Z,23.30
2022-09-12T10:01:54.830Z,23.93
2022-09-12T10:04:26.011Z,26.23
2022-09-12T10:06:55.873Z,24.70
2022-09-12T10:09:27.158Z,25.80
2022-09-12T10:11:57.576Z,26.20
2022-09-12T10:14:37.679Z,33.13
2022-09-12T10:17:28.684Z,29.70
2022-09-12T10:20:19.907Z,30.97
2022-09-12T10:22:49.676Z,30.07
2022-09-12T10:25:20.146Z,29.30
2022-09-12T10:27:57.757Z,30.80
2022-09-12T10:30:29.617Z,31.67
2022-09-12T10:33:08.449Z,30.00
2022-09-12T10:35:47.276Z,30.83
2022-09-12T10:38:23.400Z,29.60
2022-09-12T10:40:59.796Z,30.77
2022-09-12T10:43:31.315Z,32.00
2022-09-12T10:46:21.986Z,29.83
2022-09-12T10:48:52.717Z,26.73
2022-09-12T10:51:29.854Z,31.27
2022-09-12T10:54:00.971Z,30.73
2022-09-12T10:56:34.945Z,29.87
2022-09-12T10:59:22.662Z,30.00
2022-09-12T11:02:01.271Z,28.00
2022-09-12T11:04:44.691Z,29.17
2022-09-12T11:07:43.458Z,28.67
2022-09-12T11:10:27.120Z,29.45
2022-09-12T11:13:11.644Z,25.77
2022-09-12T11:16:02.713Z,25.45
2022-09-12T11:18:54.308Z,24.90
2022-09-12T11:21:40.215Z,24.48
2022-09-12T11:24:29.277Z,25.90
2022-09-12T11:27:22.425Z,22.00
2022-09-12T11:29:52.483Z,23.80
2022-09-12T11:32:44.621Z,21.35
2022-09-12T11:35:24.434Z,23.13
2022-09-12T11:38:23.440Z,20.23
2022-09-12T11:40:58.135Z,17.42
2022-09-12T11:43:41.330Z,16.52
2022-09-12T11:46:19.317Z,15.27
2022-09-12T11:48:56.869Z,17.60
2022-09-12T11:51:30.976Z,16.48
2022-09-12T11:54:13.956Z,16.15
2022-09-12T11:56:47.299Z,14.25
2022-09-12T11:59:32.732Z,16.50
2022-09-12T12:02:01.937Z,16.88
2022-09-12T12:04:39.350Z,14.45
2022-09-12T12:07:12.421Z,14.48
2022-09-12T12:09:51.349Z,15.90
2022-09-12T12:12:25.676Z,15.57
2022-09-12T12:14:55.939Z,14.10
2022-09-12T12:17:26.985Z,14.50
2022-09-12T12:20:07.413Z,14.60
2022-09-12T12:22:37.361Z,14.70
2022-09-12T12:25:39.974Z,16.05
2022-09-12T12:28:08.380Z,15.18
2022-09-12T12:31:04.343Z,12.48
2022-09-12T12:34:23.507Z,12.40
2022-09-12T12:36:51.630Z,13.60
2022-09-12T12:40:05.800Z,16.48
2022-09-12T12:43:32.930Z,13.80
2022-09-12T12:46:09.284Z,11.13
2022-09-12T12:49:10.750Z,10.98
2022-09-12T12:52:06.036Z,11.63
2022-09-12T12:54:54.736Z,11.73
2022-09-12T12:57:47.425Z,13.88
2022-09-12T13:00:32.264Z,14.13
2022-09-12T13:03:04.273Z,13.02
2022-09-12T13:05:40.966Z,10.27
2022-09-12T13:08:12.180Z,12.07
2022-09-12T13:10:50.172Z,11.95
2022-09-12T13:13:27.294Z,11.32
2022-09-12T13:15:55.727Z,11.77
2022-09-12T13:18:28.646Z,9.20
2022-09-12T13:21:09.014Z,7.75
2022-09-12T13:23:37.568Z,10.13
2022-09-12T13:26:14.001Z,9.07
2022-09-12T13:28:43.469Z,10.50
2022-09-12T13:31:19.107Z,11.27
2022-09-12T13:33:50.954Z,10.98
2022-09-12T13:36:48.236Z,11.00
2022-09-12T13:39:21.528Z,11.43
2022-09-12T13:42:41.612Z,10.82
2022-09-12T13:45:16.859Z,9.55
2022-09-12T13:47:47.378Z,8.48
2022-09-12T13:50:21.293Z,8.10
2022-09-12T13:52:54.015Z,9.60
2022-09-12T13:55:31.475Z,8.95
2022-09-12T13:58:02.744Z,8.77
2022-09-12T14:00:34.939Z,8.48
2022-09-12T14:03:20.995Z,8.85
2022-09-12T14:05:57.557Z,9.88
2022-09-12T14:08:26.929Z,9.88
2022-09-12T14:10:55.413Z,9.75
2022-09-12T14:13:26.748Z,11.98
2022-09-12T14:15:59.825Z,11.10
2022-09-12T14:18:31.130Z,10.75
2022-09-12T14:21:10.494Z,8.95
2022-09-12T14:23:42.548Z,10.30
2022-09-12T14:26:13.847Z,10.38
2022-09-12T14:28:44.840Z,11.57
2022-09-12T14:31:25.470Z,12.80
2022-09-12T14:33:56.006Z,13.70
2022-09-12T14:36:26.550Z,12.18
2022-09-12T14:38:57.855Z,10.98
2022-09-12T14:41:30.754Z,11.88
2022-09-12T14:44:02.760Z,10.50
2022-09-12T14:46:36.110Z,10.23
2022-09-12T14:49:11.298Z,7.78
2022-09-12T14:51:42.010Z,7.70
2022-09-12T14:54:39.431Z,7.38
2022-09-12T14:57:33.307Z,7.25
2022-09-12T15:00:26.029Z,5.50
2022-09-12T15:02:56.224Z,5.15
2022-09-12T15:05:29.478Z,5.95
2022-09-12T15:08:01.406Z,5.57
2022-09-12T15:10:33.825Z,5.88
2022-09-12T15:13:17.312Z,6.57
2022-09-12T15:15:48.197Z,5.22
2022-09-12T15:18:18.769Z,8.20
2022-09-12T15:20:49.301Z,6.07
2022-09-12T15:23:30.996Z,5.70
2022-09-12T15:25:59.134Z,5.85
2022-09-12T15:28:27.853Z,5.47
2022-09-12T15:30:58.347Z,7.03
2022-09-12T15:33:27.841Z,8.20
2022-09-12T15:35:56.014Z,6.05
2022-09-12T15:38:26.581Z,7.72
2022-09-12T15:40:55.722Z,6.65
2022-09-12T15:43:26.293Z,6.80
2022-09-12T15:45:54.534Z,6.60
2022-09-12T15:48:27.306Z,7.05
2022-09-12T15:50:57.595Z,6.45
2022-09-12T15:53:26.115Z,6.43
2022-09-12T15:55:54.170Z,5.93
2022-09-12T15:58:22.213Z,6.55
2022-09-12T16:00:50.498Z,6.32
2022-09-12T16:03:24.811Z,7.72
2022-09-12T16:05:58.140Z,6.18
2022-09-12T16:08:26.931Z,5.82
2022-09-12T16:10:58.439Z,6.93
2022-09-12T16:13:29.285Z,6.35
2022-09-12T16:15:59.246Z,6.60
2022-09-12T16:18:27.805Z,5.55
2022-09-12T16:20:58.325Z,5.25
2022-09-12T16:23:26.414Z,5.05
2022-09-12T16:26:02.140Z,5.97
2022-09-12T16:28:30.735Z,4.68
2022-09-12T16:31:00.387Z,4.90
2022-09-12T16:33:29.617Z,4.50
2022-09-12T16:36:04.370Z,4.10
2022-09-12T16:38:33.709Z,4.40
2022-09-12T16:41:02.535Z,4.53
2022-09-12T16:43:31.962Z,5.28
2022-09-12T16:46:04.481Z,4.55
2022-09-12T16:48:33.672Z,4.70
2022-09-12T16:51:06.867Z,4.35
2022-09-12T16:53:36.930Z,4.38
2022-09-12T16:56:05.744Z,4.30
2022-09-12T16:58:38.482Z,4.38
2022-09-12T17:01:11.521Z,4.50
2022-09-12T17:03:40.300Z,4.72
2022-09-12T17:06:13.906Z,5.05
2022-09-12T17:08:44.497Z,4.43
2022-09-12T17:11:15.586Z,5.40
2022-09-12T17:14:03.907Z,6.05
2022-09-12T17:16:35.431Z,4.53
2022-09-12T17:19:04.355Z,5.15
2022-09-12T17:21:35.095Z,5.43
2022-09-12T17:24:03.714Z,4.65
2022-09-12T17:26:31.890Z,5.43
2022-09-12T17:29:03.195Z,6.57
2022-09-12T17:31:31.446Z,5.30
2022-09-12T17:34:00.760Z,6.85
2022-09-12T17:36:31.865Z,6.60
2022-09-12T17:39:02.820Z,7.57
2022-09-12T17:41:32.793Z,5.25
2022-09-12T17:44:03.529Z,5.25
2022-09-12T17:46:34.979Z,5.35
2022-09-12T17:49:05.251Z,5.50
2022-09-12T17:51:33.881Z,6.38
2022-09-12T17:54:07.226Z,5.95
2022-09-12T17:56:37.202Z,5.60
2022-09-12T17:59:07.317Z,5.32
2022-09-12T18:01:52.989Z,6.30
2022-09-12T18:04:21.292Z,5.53
2022-09-12T18:06:50.146Z,5.85
2022-09-12T18:09:23.249Z,5.35
2022-09-12T18:11:52.587Z,5.07
2022-09-12T18:14:21.117Z,5.85
2022-09-12T18:16:49.790Z,5.40
2022-09-12T18:19:18.717Z,6.05
2022-09-12T18:21:47.429Z,7.90
2022-09-12T18:24:15.982Z,5.57
2022-09-12T18:26:45.394Z,6.53
2022-09-12T18:29:16.795Z,5.80
2022-09-12T18:31:46.661Z,5.97
2022-09-12T18:34:15.223Z,5.77
2022-09-12T18:36:45.796Z,6.63
2022-09-12T18:39:14.095Z,6.00
2022-09-12T18:41:42.549Z,5.67
2022-09-12T18:44:13.169Z,5.73
2022-09-12T18:46:41.459Z,5.40
2022-09-12T18:49:10.629Z,5.60
2022-09-12T18:51:41.630Z,6.57
2022-09-12T18:54:14.441Z,7.33
2022-09-12T18:56:43.962Z,6.00
2022-09-12T18:59:14.861Z,6.33
2022-09-12T19:01:44.090Z,6.30
2022-09-12T19:04:13.766Z,6.20
2022-09-12T19:06:43.485Z,7.13
2022-09-12T19:09:13.989Z,5.70
2022-09-12T19:11:48.859Z,7.10
2022-09-12T19:14:20.560Z,8.13
2022-09-12T19:16:50.725Z,6.47
2022-09-12T19:19:19.198Z,6.10
2022-09-12T19:21:47.824Z,6.40
2022-09-12T19:24:17.038Z,7.30
2022-09-12T19:26:45.310Z,6.23
2022-09-12T19:29:14.664Z,6.27
2022-09-12T19:31:45.935Z,7.70
2022-09-12T19:34:15.329Z,6.53
2022-09-12T19:36:46.289Z,6.67
2022-09-12T19:39:16.192Z,6.87
2022-09-12T19:41:44.995Z,6.50
2022-09-12T19:44:14.119Z,6.27
2022-09-12T19:46:43.668Z,6.60
2022-09-12T19:49:13.352Z,6.67
2022-09-12T19:51:41.783Z,6.83
2022-09-12T19:54:10.486Z,7.10
2022-09-12T19:56:38.613Z,6.93
2022-09-12T19:59:06.704Z,6.90
2022-09-12T20:01:36.896Z,7.27
2022-09-12T20:04:07.550Z,7.73
2022-09-12T20:06:36.700Z,7.73
2022-09-12T20:09:05.339Z,8.17
2022-09-12T20:11:33.745Z,7.33
2022-09-12T20:14:01.992Z,8.07
2022-09-12T20:16:31.100Z,7.63
2022-09-12T20:19:01.694Z,6.83
2022-09-12T20:21:34.097Z,7.63
2022-09-12T20:24:04.726Z,9.30
2022-09-12T20:26:33.097Z,7.93
2022-09-12T20:29:01.662Z,7.77
2022-09-12T20:31:30.462Z,7.93
2022-09-12T20:33:58.873Z,9.07
2022-09-12T20:36:27.450Z,9.30
2022-09-12T20:38:59.906Z,9.77
2022-09-12T20:41:30.304Z,8.67
2022-09-12T20:43:59.209Z,9.60
2022-09-12T20:46:29.182Z,10.70
2022-09-12T20:48:59.405Z,11.50
2022-09-12T20:51:29.657Z,10.33
2022-09-12T20:54:01.044Z,10.43
2022-09-12T20:56:31.703Z,11.70
2022-09-12T20:59:00.987Z,11.77
2022-09-12T21:01:31.280Z,11.90
2022-09-12T21:04:01.393Z,11.97
2022-09-12T21:06:29.679Z,13.53
2022-09-12T21:09:00.509Z,11.40
2022-09-12T21:11:29.611Z,11.97
2022-09-12T21:13:58.414Z,12.10
2022-09-12T21:16:27.304Z,11.77
2022-09-12T21:18:57.465Z,11.83
2022-09-12T21:21:26.490Z,12.93
2022-09-12T21:23:55.320Z,13.73
2022-09-12T21:26:24.744Z,12.33
2022-09-12T21:28:52.815Z,12.90
2022-09-12T21:31:21.187Z,11.17
2022-09-12T21:33:49.422Z,12.57
2022-09-12T21:36:17.602Z,13.37
2022-09-12T21:38:45.706Z,14.30
2022-09-12T21:41:15.729Z,12.67
2022-09-12T21:43:45.469Z,11.50
2022-09-12T21:46:13.815Z,12.77
2022-09-12T21:48:43.990Z,12.40
2022-09-12T21:51:12.141Z,12.87
2022-09-12T21:53:40.448Z,13.40
2022-09-12T21:56:10.428Z,16.67
2022-09-12T21:58:39.263Z,15.60
2022-09-12T22:01:12.338Z,12.57
2022-09-12T22:03:42.995Z,14.53
2022-09-12T22:06:11.121Z,13.57
2022-09-12T22:08:40.463Z,14.10
2022-09-12T22:11:10.391Z,13.30
2022-09-12T22:13:40.051Z,13.87
2022-09-12T22:16:10.389Z,14.73
2022-09-12T22:18:39.492Z,14.70
2022-09-12T22:21:12.283Z,16.03
2022-09-12T22:23:57.987Z,15.37
2022-09-12T22:26:27.011Z,16.07
2022-09-12T22:28:55.356Z,17.57
2022-09-12T22:31:26.912Z,16.30
2022-09-12T22:33:57.368Z,16.13
2022-09-12T22:36:30.432Z,17.77
2022-09-12T22:38:59.683Z,17.00
2022-09-12T22:41:28.384Z,17.30
2022-09-12T22:43:57.516Z,16.83
2022-09-12T22:46:27.488Z,18.50
2022-09-12T22:48:55.946Z,18.87
2022-09-12T22:51:24.025Z,20.63
2022-09-12T22:53:52.497Z,18.20
2022-09-12T22:56:20.557Z,17.13
2022-09-12T22:58:48.714Z,18.37
2022-09-12T23:01:16.888Z,15.53
2022-09-12T23:03:46.520Z,18.80
2022-09-12T23:06:14.680Z,16.80
2022-09-12T23:08:42.815Z,20.53
2022-09-12T23:11:14.573Z,17.83
2022-09-12T23:13:47.305Z,20.07
2022-09-12T23:16:19.902Z,17.73
2022-09-12T23:18:49.823Z,18.67
2022-09-12T23:21:20.763Z,19.33
2022-09-12T23:23:49.010Z,19.03
2022-09-12T23:26:19.278Z,20.60
2022-09-12T23:28:51.100Z,23.47
2022-09-12T23:31:19.504Z,23.10
2022-09-12T23:33:50.115Z,22.10
2022-09-12T23:36:18.154Z,22.60
2022-09-12T23:38:47.997Z,21.73
2022-09-12T23:41:17.950Z,24.97
2022-09-12T23:43:47.009Z,23.90
2022-09-12T23:46:17.086Z,22.97
2022-09-12T23:48:45.918Z,24.27
2022-09-12T23:51:15.939Z,25.97
2022-09-12T23:53:44.130Z,23.60
2022-09-12T23:56:12.573Z,25.50
2022-09-12T23:58:40.618Z,26.67
